x

Smith Island, Wa (sisw1) Weather Station

11:00am - Tue 27th Jun 2017 All times are PDT. -7 hours from GMT.

  • Wind
    9mph, 10mph gusts
  • Air Temp 57°f
  • Sea Pressure 1017.8mb
  • Smith Island, Wa
  • Smith Island, Wa

More Historic Weather Station data

Upgrade to MSW Pro to gain access to the past 30 days of data for over 8000 Wavebouys and Weather Stations around the globe.

Join Pro

Comparision Forecast

View Surf forecast
   
Tue 06/27 11:00am 9 10 mph 1017.8mb 57f
10:00am 8 9 mph 1017.9mb 55f
9:00am 6 7 mph 1017.9mb 53f
8:00am 7 7 mph 1017.5mb 53f
7:00am 2 3 mph 1017.3mb 53f
6:00am 6 6 mph 1017.2mb 52f
5:00am 9 9 mph 1016.9mb 52f
4:00am 11 13 mph 1016.6mb 52f
3:00am 13 14 mph 1016.2mb 52f
2:00am 18 20 mph 1015.8mb 52f
1:00am 16 17 mph 1015.6mb 52f
12:00am 15 17 mph 1014.9mb 53f
Mon 06/26 11:00pm 17 23 mph 1014.6mb 54f
10:00pm 21 28 mph 1014.6mb 53f
9:00pm 25 28 mph 1014mb 53f
8:00pm 25 28 mph 1013.6mb 53f
7:00pm 23 26 mph 1013.4mb 54f
6:00pm 29 31 mph 1013mb 55f
5:00pm 26 29 mph 1013.3mb 55f
4:00pm 26 30 mph 1013.6mb 57f
3:00pm 16 18 mph 1014.5mb 59f
2:00pm 10 13 mph 1014.7mb 58f
1:00pm 10 10 mph 1014.8mb 56f
12:00pm 11 13 mph 1014.7mb 56f
11:00am 9 10 mph 1014.2mb 55f
10:00am 15 16 mph 1014.3mb 53f
9:00am 15 17 mph 1014.1mb 54f
8:00am 18 22 mph 1013.7mb 53f
7:00am 24 26 mph 1013.4mb 53f
6:00am 24 26 mph 1013.4mb 53f
5:00am 30 33 mph 1013mb 53f
4:00am 29 32 mph 1012.3mb 53f
3:00am 28 31 mph 1011.9mb 55f
2:00am 26 29 mph 1011.9mb 56f
1:00am 16 17 mph 1011.1mb 54f
12:00am 10 11 mph 1011.6mb 54f
Sun 06/25 11:00pm 14 16 mph 1010.9mb 55f
10:00pm 10 14 mph 1011mb 55f
9:00pm 9 13 mph 1010.7mb 55f
8:00pm 18 20 mph 1010.5mb 56f
7:00pm 15 16 mph 1010.9mb 57f
6:00pm 13 14 mph 1010.8mb 60f
5:00pm 15 15 mph 1011.2mb 65f
4:00pm 7 7 mph 1011.4mb 69f
3:00pm 9 9 mph 1011.9mb 64f
2:00pm 8 9 mph 1012.3mb 64f
1:00pm 5 5 mph 1012.8mb 66f
12:00pm 6 7 mph 1013.4mb 62f
11:00am 3 5 mph 1013.6mb 61f
10:00am  -  0 mph 1014mb 63f
9:00am 2 5 mph 1014.5mb 64f
8:00am 1 2 mph 1014.6mb 59f
7:00am  -  2 mph 1014.6mb 58f
6:00am  -  0 mph 1014.5mb 56f
5:00am  -  0 mph 1014.6mb 58f
4:00am  -  0 mph 1014.8mb 57f
3:00am 5 6 mph 1014.7mb 60f
2:00am 9 9 mph 1014.9mb 60f
1:00am 7 8 mph 1015.2mb 60f
12:00am 2 5 mph 1015.5mb 56f
Sat 06/24 11:00pm 9 9 mph 1015.6mb 63f
10:00pm 11 13 mph 1015.8mb 63f
9:00pm 11 11 mph 1015.8mb 63f
8:00pm 9 10 mph 1016.1mb 64f
7:00pm 8 9 mph 1016.6mb 66f
6:00pm 9 10 mph 1017.3mb 65f
5:00pm 10 11 mph 1018.1mb 64f
4:00pm 9 10 mph 1018.9mb 65f
3:00pm 9 9 mph 1019.5mb 65f
2:00pm 9 10 mph 1020mb 62f
1:00pm 7 10 mph 1020.8mb 64f
12:00pm 6 7 mph 1021.2mb 61f
11:00am 1 5 mph 1021.4mb 66f
10:00am 2 3 mph 1021.8mb 59f
9:00am 5 5 mph 1021.8mb 60f
8:00am 3 3 mph 1021.9mb 56f
7:00am 2 2 mph 1021.7mb 56f
6:00am 5 6 mph 1021.4mb 53f
5:00am  -  0 mph 1021.1mb 53f
4:00am 6 6 mph 1021.1mb 55f
3:00am 6 6 mph 1021mb 56f
2:00am 5 6 mph 1021.2mb 56f
1:00am 3 5 mph 1021.3mb 55f
12:00am 6 7 mph 1021.3mb 55f
Fri 06/23 11:00pm 7 9 mph 1021.3mb 55f
10:00pm 6 7 mph 1021.2mb 59f
9:00pm 8 8 mph 1021.2mb 58f
8:00pm 6 7 mph 1021.1mb 60f